Terminal Aerodrome Forecast
Issued by NWS Quad Cities IA IL

Home | Current Version | Previous Version | Text Only | Print | Product List | Glossary On
Versions: 1 2 3 4 5 6 7 8 9 10 11 12 13 14 15 16 17 18 19 20
392
FTUS43 KDVN 021731
TAFDBQ
TAF
KDBQ 021731Z 0218/0318 33013KT P6SM BKN025 OVC035
     FM030100 32005KT P6SM OVC030
     FM030900 28006KT P6SM OVC020=

USA.gov is the U.S. government's official web portal to all federal, state and local government web resources and services.